sensor_id;sensor_type;location;lat;lon;timestamp;P1;durP1;ratioP1;P2;durP2;ratioP2
3561;SDS011;1795;52.074;4.754;2023-04-26T00:02:13;7.13;;;4.25;;
3561;SDS011;1795;52.074;4.754;2023-04-26T00:04:43;8.80;;;4.10;;
3561;SDS011;1795;52.074;4.754;2023-04-26T00:07:12;10.00;;;4.15;;
3561;SDS011;1795;52.074;4.754;2023-04-26T00:09:41;7.20;;;3.78;;
3561;SDS011;1795;52.074;4.754;2023-04-26T00:12:10;6.63;;;3.75;;
3561;SDS011;1795;52.074;4.754;2023-04-26T00:14:37;9.10;;;4.00;;
3561;SDS011;1795;52.074;4.754;2023-04-26T00:17:07;5.50;;;4.20;;
3561;SDS011;1795;52.074;4.754;2023-04-26T00:19:35;8.48;;;3.78;;
3561;SDS011;1795;52.074;4.754;2023-04-26T00:22:03;5.10;;;3.72;;
3561;SDS011;1795;52.074;4.754;2023-04-26T00:24:31;8.80;;;4.15;;
3561;SDS011;1795;52.074;4.754;2023-04-26T00:26:59;6.70;;;4.30;;
3561;SDS011;1795;52.074;4.754;2023-04-26T00:29:30;6.25;;;3.95;;
3561;SDS011;1795;52.074;4.754;2023-04-26T00:31:58;8.23;;;3.87;;
3561;SDS011;1795;52.074;4.754;2023-04-26T00:34:31;5.97;;;4.30;;
3561;SDS011;1795;52.074;4.754;2023-04-26T00:37:00;8.47;;;4.10;;
3561;SDS011;1795;52.074;4.754;2023-04-26T00:39:28;6.07;;;3.90;;
3561;SDS011;1795;52.074;4.754;2023-04-26T00:41:57;6.03;;;4.30;;
3561;SDS011;1795;52.074;4.754;2023-04-26T00:44:25;5.87;;;4.20;;
3561;SDS011;1795;52.074;4.754;2023-04-26T00:46:52;5.70;;;4.40;;
3561;SDS011;1795;52.074;4.754;2023-04-26T00:49:22;6.47;;;4.10;;
3561;SDS011;1795;52.074;4.754;2023-04-26T00:51:52;7.22;;;4.30;;
3561;SDS011;1795;52.074;4.754;2023-04-26T00:54:20;7.00;;;4.40;;
3561;SDS011;1795;52.074;4.754;2023-04-26T00:56:48;5.82;;;4.95;;
3561;SDS011;1795;52.074;4.754;2023-04-26T00:59:18;6.30;;;4.00;;
3561;SDS011;1795;52.074;4.754;2023-04-26T01:01:46;8.53;;;4.30;;
3561;SDS011;1795;52.074;4.754;2023-04-26T01:04:14;8.27;;;4.70;;
3561;SDS011;1795;52.074;4.754;2023-04-26T01:06:43;7.50;;;4.30;;
3561;SDS011;1795;52.074;4.754;2023-04-26T01:09:13;6.85;;;4.32;;
3561;SDS011;1795;52.074;4.754;2023-04-26T01:11:41;6.35;;;4.10;;
3561;SDS011;1795;52.074;4.754;2023-04-26T01:14:10;8.40;;;4.25;;
3561;SDS011;1795;52.074;4.754;2023-04-26T01:16:38;8.40;;;3.97;;
3561;SDS011;1795;52.074;4.754;2023-04-26T01:19:07;5.88;;;4.63;;
3561;SDS011;1795;52.074;4.754;2023-04-26T01:21:37;7.30;;;3.90;;
3561;SDS011;1795;52.074;4.754;2023-04-26T01:24:07;6.60;;;4.22;;
3561;SDS011;1795;52.074;4.754;2023-04-26T01:26:36;4.82;;;4.10;;
3561;SDS011;1795;52.074;4.754;2023-04-26T01:29:14;5.88;;;4.35;;
3561;SDS011;1795;52.074;4.754;2023-04-26T01:31:43;5.18;;;4.22;;
3561;SDS011;1795;52.074;4.754;2023-04-26T01:34:11;7.03;;;4.50;;
3561;SDS011;1795;52.074;4.754;2023-04-26T01:36:39;10.25;;;4.93;;
3561;SDS011;1795;52.074;4.754;2023-04-26T01:39:09;6.03;;;4.03;;
3561;SDS011;1795;52.074;4.754;2023-04-26T01:41:37;6.80;;;4.00;;
3561;SDS011;1795;52.074;4.754;2023-04-26T01:44:04;6.28;;;4.90;;
3561;SDS011;1795;52.074;4.754;2023-04-26T01:46:32;5.10;;;4.43;;
3561;SDS011;1795;52.074;4.754;2023-04-26T01:49:00;7.63;;;4.70;;
3561;SDS011;1795;52.074;4.754;2023-04-26T01:51:28;6.63;;;4.50;;
3561;SDS011;1795;52.074;4.754;2023-04-26T01:53:57;7.82;;;4.57;;
3561;SDS011;1795;52.074;4.754;2023-04-26T01:56:26;6.15;;;4.40;;
3561;SDS011;1795;52.074;4.754;2023-04-26T01:58:54;7.90;;;4.88;;
3561;SDS011;1795;52.074;4.754;2023-04-26T02:01:22;7.22;;;4.65;;
3561;SDS011;1795;52.074;4.754;2023-04-26T02:03:51;10.32;;;4.78;;
3561;SDS011;1795;52.074;4.754;2023-04-26T02:06:19;5.07;;;4.47;;
3561;SDS011;1795;52.074;4.754;2023-04-26T02:08:47;5.68;;;4.38;;
3561;SDS011;1795;52.074;4.754;2023-04-26T02:11:15;6.82;;;4.97;;
3561;SDS011;1795;52.074;4.754;2023-04-26T02:13:44;6.22;;;4.22;;
3561;SDS011;1795;52.074;4.754;2023-04-26T02:16:12;7.53;;;4.60;;
3561;SDS011;1795;52.074;4.754;2023-04-26T02:18:42;7.30;;;4.70;;
3561;SDS011;1795;52.074;4.754;2023-04-26T02:21:10;5.30;;;4.10;;
3561;SDS011;1795;52.074;4.754;2023-04-26T02:23:38;5.78;;;4.40;;
3561;SDS011;1795;52.074;4.754;2023-04-26T02:26:06;6.38;;;4.47;;
3561;SDS011;1795;52.074;4.754;2023-04-26T02:28:34;5.53;;;4.35;;
3561;SDS011;1795;52.074;4.754;2023-04-26T02:31:03;5.60;;;4.10;;
3561;SDS011;1795;52.074;4.754;2023-04-26T02:33:32;4.28;;;3.85;;
3561;SDS011;1795;52.074;4.754;2023-04-26T02:36:01;6.45;;;4.35;;
3561;SDS011;1795;52.074;4.754;2023-04-26T02:38:31;6.38;;;4.20;;
3561;SDS011;1795;52.074;4.754;2023-04-26T02:41:01;5.43;;;4.05;;
3561;SDS011;1795;52.074;4.754;2023-04-26T02:43:30;5.18;;;4.00;;
3561;SDS011;1795;52.074;4.754;2023-04-26T02:45:58;6.63;;;3.90;;
3561;SDS011;1795;52.074;4.754;2023-04-26T02:48:28;6.85;;;4.30;;
3561;SDS011;1795;52.074;4.754;2023-04-26T02:50:56;7.55;;;4.30;;
3561;SDS011;1795;52.074;4.754;2023-04-26T02:53:24;8.20;;;4.30;;
3561;SDS011;1795;52.074;4.754;2023-04-26T02:55:51;7.90;;;4.00;;
3561;SDS011;1795;52.074;4.754;2023-04-26T02:58:19;5.75;;;4.10;;
3561;SDS011;1795;52.074;4.754;2023-04-26T03:00:47;6.20;;;4.00;;
3561;SDS011;1795;52.074;4.754;2023-04-26T03:03:15;6.85;;;4.20;;
3561;SDS011;1795;52.074;4.754;2023-04-26T03:05:45;6.50;;;4.00;;
3561;SDS011;1795;52.074;4.754;2023-04-26T03:08:13;6.03;;;3.92;;
3561;SDS011;1795;52.074;4.754;2023-04-26T03:10:42;6.68;;;3.88;;
3561;SDS011;1795;52.074;4.754;2023-04-26T03:13:11;8.50;;;4.10;;
3561;SDS011;1795;52.074;4.754;2023-04-26T03:15:42;5.47;;;3.78;;
3561;SDS011;1795;52.074;4.754;2023-04-26T03:18:11;6.00;;;4.00;;
3561;SDS011;1795;52.074;4.754;2023-04-26T03:20:39;6.28;;;3.65;;
3561;SDS011;1795;52.074;4.754;2023-04-26T03:23:09;6.85;;;3.63;;
3561;SDS011;1795;52.074;4.754;2023-04-26T03:25:36;4.20;;;3.80;;
3561;SDS011;1795;52.074;4.754;2023-04-26T03:28:04;6.47;;;3.85;;
3561;SDS011;1795;52.074;4.754;2023-04-26T03:30:32;7.05;;;4.30;;
3561;SDS011;1795;52.074;4.754;2023-04-26T03:33:00;8.15;;;4.10;;
3561;SDS011;1795;52.074;4.754;2023-04-26T03:35:28;6.38;;;4.00;;
3561;SDS011;1795;52.074;4.754;2023-04-26T03:37:56;7.18;;;4.72;;
3561;SDS011;1795;52.074;4.754;2023-04-26T03:40:26;5.50;;;4.10;;
3561;SDS011;1795;52.074;4.754;2023-04-26T03:42:53;6.65;;;3.90;;
3561;SDS011;1795;52.074;4.754;2023-04-26T03:45:21;7.40;;;4.35;;
3561;SDS011;1795;52.074;4.754;2023-04-26T03:47:51;6.72;;;3.90;;
3561;SDS011;1795;52.074;4.754;2023-04-26T03:50:19;7.93;;;4.70;;
3561;SDS011;1795;52.074;4.754;2023-04-26T03:52:47;6.88;;;4.20;;
3561;SDS011;1795;52.074;4.754;2023-04-26T03:55:16;7.30;;;4.47;;
3561;SDS011;1795;52.074;4.754;2023-04-26T03:57:45;7.78;;;4.20;;
3561;SDS011;1795;52.074;4.754;2023-04-26T04:00:14;7.03;;;3.90;;
3561;SDS011;1795;52.074;4.754;2023-04-26T04:02:42;6.53;;;4.85;;
3561;SDS011;1795;52.074;4.754;2023-04-26T04:05:10;5.10;;;4.00;;
3561;SDS011;1795;52.074;4.754;2023-04-26T04:07:39;8.90;;;4.72;;
3561;SDS011;1795;52.074;4.754;2023-04-26T04:10:07;6.22;;;4.50;;
3561;SDS011;1795;52.074;4.754;2023-04-26T04:12:36;6.85;;;4.10;;
3561;SDS011;1795;52.074;4.754;2023-04-26T04:15:06;5.68;;;4.30;;
3561;SDS011;1795;52.074;4.754;2023-04-26T04:17:35;10.05;;;4.85;;
3561;SDS011;1795;52.074;4.754;2023-04-26T04:20:04;5.78;;;4.00;;
3561;SDS011;1795;52.074;4.754;2023-04-26T04:22:33;8.52;;;4.32;;
3561;SDS011;1795;52.074;4.754;2023-04-26T04:25:15;5.73;;;4.27;;
3561;SDS011;1795;52.074;4.754;2023-04-26T04:27:47;8.95;;;4.60;;
3561;SDS011;1795;52.074;4.754;2023-04-26T04:30:16;7.53;;;4.53;;
3561;SDS011;1795;52.074;4.754;2023-04-26T04:32:45;6.13;;;4.70;;
3561;SDS011;1795;52.074;4.754;2023-04-26T04:35:12;7.05;;;4.15;;
3561;SDS011;1795;52.074;4.754;2023-04-26T04:37:40;6.18;;;4.55;;
3561;SDS011;1795;52.074;4.754;2023-04-26T04:40:10;7.00;;;4.22;;
3561;SDS011;1795;52.074;4.754;2023-04-26T04:42:39;8.48;;;4.55;;
3561;SDS011;1795;52.074;4.754;2023-04-26T04:45:07;8.40;;;4.82;;
3561;SDS011;1795;52.074;4.754;2023-04-26T04:47:37;6.28;;;4.07;;
3561;SDS011;1795;52.074;4.754;2023-04-26T04:50:05;8.93;;;5.10;;
3561;SDS011;1795;52.074;4.754;2023-04-26T04:52:34;5.75;;;4.38;;
3561;SDS011;1795;52.074;4.754;2023-04-26T04:55:03;6.70;;;4.90;;
3561;SDS011;1795;52.074;4.754;2023-04-26T04:57:32;9.35;;;4.50;;
3561;SDS011;1795;52.074;4.754;2023-04-26T04:59:59;5.35;;;4.00;;
3561;SDS011;1795;52.074;4.754;2023-04-26T05:02:36;10.02;;;4.93;;
3561;SDS011;1795;52.074;4.754;2023-04-26T05:05:05;6.32;;;4.60;;
3561;SDS011;1795;52.074;4.754;2023-04-26T05:07:33;5.10;;;4.10;;
3561;SDS011;1795;52.074;4.754;2023-04-26T05:10:01;8.53;;;4.50;;
3561;SDS011;1795;52.074;4.754;2023-04-26T05:12:29;6.57;;;4.30;;
3561;SDS011;1795;52.074;4.754;2023-04-26T05:14:58;8.02;;;4.20;;
3561;SDS011;1795;52.074;4.754;2023-04-26T05:17:26;6.88;;;4.57;;
3561;SDS011;1795;52.074;4.754;2023-04-26T05:19:57;7.68;;;4.70;;
3561;SDS011;1795;52.074;4.754;2023-04-26T05:22:25;9.07;;;5.00;;
3561;SDS011;1795;52.074;4.754;2023-04-26T05:24:53;7.13;;;4.75;;
3561;SDS011;1795;52.074;4.754;2023-04-26T05:27:21;7.55;;;4.75;;
3561;SDS011;1795;52.074;4.754;2023-04-26T05:29:49;5.85;;;4.70;;
3561;SDS011;1795;52.074;4.754;2023-04-26T05:32:17;7.80;;;4.53;;
3561;SDS011;1795;52.074;4.754;2023-04-26T05:34:45;7.10;;;4.90;;
3561;SDS011;1795;52.074;4.754;2023-04-26T05:37:14;7.68;;;4.80;;
3561;SDS011;1795;52.074;4.754;2023-04-26T05:39:43;6.38;;;4.80;;
3561;SDS011;1795;52.074;4.754;2023-04-26T05:42:11;6.25;;;4.50;;
3561;SDS011;1795;52.074;4.754;2023-04-26T05:44:42;8.30;;;4.50;;
3561;SDS011;1795;52.074;4.754;2023-04-26T05:47:10;6.97;;;4.63;;
3561;SDS011;1795;52.074;4.754;2023-04-26T05:49:38;5.88;;;4.93;;
3561;SDS011;1795;52.074;4.754;2023-04-26T05:52:06;8.85;;;4.90;;
3561;SDS011;1795;52.074;4.754;2023-04-26T05:54:35;5.65;;;4.40;;
3561;SDS011;1795;52.074;4.754;2023-04-26T05:57:03;8.93;;;4.97;;
3561;SDS011;1795;52.074;4.754;2023-04-26T05:59:34;8.25;;;4.90;;
3561;SDS011;1795;52.074;4.754;2023-04-26T06:02:02;7.82;;;4.70;;
3561;SDS011;1795;52.074;4.754;2023-04-26T06:04:31;5.80;;;4.80;;
3561;SDS011;1795;52.074;4.754;2023-04-26T06:06:59;6.95;;;4.50;;
3561;SDS011;1795;52.074;4.754;2023-04-26T06:09:29;7.97;;;5.28;;
3561;SDS011;1795;52.074;4.754;2023-04-26T06:11:59;6.25;;;4.50;;
3561;SDS011;1795;52.074;4.754;2023-04-26T06:14:27;7.90;;;5.25;;
3561;SDS011;1795;52.074;4.754;2023-04-26T06:16:56;5.90;;;4.70;;
3561;SDS011;1795;52.074;4.754;2023-04-26T06:19:24;5.72;;;4.80;;
3561;SDS011;1795;52.074;4.754;2023-04-26T06:21:52;7.10;;;4.50;;
3561;SDS011;1795;52.074;4.754;2023-04-26T06:24:22;6.87;;;4.73;;
3561;SDS011;1795;52.074;4.754;2023-04-26T06:26:51;7.43;;;5.00;;
3561;SDS011;1795;52.074;4.754;2023-04-26T06:29:20;8.40;;;4.60;;
3561;SDS011;1795;52.074;4.754;2023-04-26T06:31:48;9.38;;;4.80;;
3561;SDS011;1795;52.074;4.754;2023-04-26T06:34:16;4.75;;;4.07;;
3561;SDS011;1795;52.074;4.754;2023-04-26T06:36:44;6.35;;;4.10;;
3561;SDS011;1795;52.074;4.754;2023-04-26T06:39:13;8.23;;;4.90;;
3561;SDS011;1795;52.074;4.754;2023-04-26T06:41:42;5.40;;;3.70;;
3561;SDS011;1795;52.074;4.754;2023-04-26T06:44:10;5.95;;;4.20;;
3561;SDS011;1795;52.074;4.754;2023-04-26T06:46:39;8.50;;;4.22;;
3561;SDS011;1795;52.074;4.754;2023-04-26T06:49:07;6.10;;;3.80;;
3561;SDS011;1795;52.074;4.754;2023-04-26T06:51:36;8.18;;;3.70;;
3561;SDS011;1795;52.074;4.754;2023-04-26T06:54:04;9.68;;;3.60;;
3561;SDS011;1795;52.074;4.754;2023-04-26T06:56:32;6.22;;;3.90;;
3561;SDS011;1795;52.074;4.754;2023-04-26T06:59:02;6.90;;;3.80;;
3561;SDS011;1795;52.074;4.754;2023-04-26T07:01:31;6.20;;;3.70;;
3561;SDS011;1795;52.074;4.754;2023-04-26T07:04:01;8.60;;;3.90;;
3561;SDS011;1795;52.074;4.754;2023-04-26T07:06:30;4.75;;;3.58;;
3561;SDS011;1795;52.074;4.754;2023-04-26T07:08:58;9.55;;;4.18;;
3561;SDS011;1795;52.074;4.754;2023-04-26T07:11:27;9.45;;;4.07;;
3561;SDS011;1795;52.074;4.754;2023-04-26T07:13:55;5.85;;;3.70;;
3561;SDS011;1795;52.074;4.754;2023-04-26T07:16:23;5.75;;;3.45;;
3561;SDS011;1795;52.074;4.754;2023-04-26T07:18:52;6.03;;;3.80;;
3561;SDS011;1795;52.074;4.754;2023-04-26T07:21:25;7.57;;;3.70;;
3561;SDS011;1795;52.074;4.754;2023-04-26T07:23:53;5.95;;;3.45;;
3561;SDS011;1795;52.074;4.754;2023-04-26T07:26:21;7.22;;;3.50;;
3561;SDS011;1795;52.074;4.754;2023-04-26T07:28:49;7.30;;;3.60;;
3561;SDS011;1795;52.074;4.754;2023-04-26T07:31:17;6.07;;;3.25;;
3561;SDS011;1795;52.074;4.754;2023-04-26T07:33:45;11.50;;;3.75;;
3561;SDS011;1795;52.074;4.754;2023-04-26T07:36:13;9.55;;;3.90;;
3561;SDS011;1795;52.074;4.754;2023-04-26T07:38:43;7.00;;;3.63;;
3561;SDS011;1795;52.074;4.754;2023-04-26T07:41:10;6.43;;;3.53;;
3561;SDS011;1795;52.074;4.754;2023-04-26T07:43:39;8.10;;;4.05;;
3561;SDS011;1795;52.074;4.754;2023-04-26T07:46:07;5.93;;;4.25;;
3561;SDS011;1795;52.074;4.754;2023-04-26T07:48:35;7.72;;;4.38;;
3561;SDS011;1795;52.074;4.754;2023-04-26T07:51:06;8.90;;;3.80;;
3561;SDS011;1795;52.074;4.754;2023-04-26T07:53:34;7.70;;;3.53;;
3561;SDS011;1795;52.074;4.754;2023-04-26T07:56:04;8.82;;;3.92;;
3561;SDS011;1795;52.074;4.754;2023-04-26T07:58:34;7.63;;;3.22;;
3561;SDS011;1795;52.074;4.754;2023-04-26T08:01:02;4.28;;;2.67;;
3561;SDS011;1795;52.074;4.754;2023-04-26T08:03:30;6.23;;;2.60;;
3561;SDS011;1795;52.074;4.754;2023-04-26T08:05:58;4.03;;;2.38;;
3561;SDS011;1795;52.074;4.754;2023-04-26T08:08:27;8.40;;;2.60;;
3561;SDS011;1795;52.074;4.754;2023-04-26T08:10:55;3.40;;;2.30;;
3561;SDS011;1795;52.074;4.754;2023-04-26T08:13:24;5.18;;;2.35;;
3561;SDS011;1795;52.074;4.754;2023-04-26T08:15:54;5.70;;;2.30;;
3561;SDS011;1795;52.074;4.754;2023-04-26T08:18:22;5.03;;;2.30;;
3561;SDS011;1795;52.074;4.754;2023-04-26T08:20:51;5.20;;;2.35;;
3561;SDS011;1795;52.074;4.754;2023-04-26T08:23:20;5.95;;;2.00;;
3561;SDS011;1795;52.074;4.754;2023-04-26T08:25:48;7.35;;;2.38;;
3561;SDS011;1795;52.074;4.754;2023-04-26T08:28:16;4.05;;;2.17;;
3561;SDS011;1795;52.074;4.754;2023-04-26T08:30:46;3.97;;;2.22;;
3561;SDS011;1795;52.074;4.754;2023-04-26T08:33:14;5.82;;;2.10;;
3561;SDS011;1795;52.074;4.754;2023-04-26T08:35:43;3.70;;;2.30;;
3561;SDS011;1795;52.074;4.754;2023-04-26T08:38:11;2.92;;;1.83;;
3561;SDS011;1795;52.074;4.754;2023-04-26T08:40:40;4.13;;;2.00;;
3561;SDS011;1795;52.074;4.754;2023-04-26T08:43:11;3.20;;;1.80;;
3561;SDS011;1795;52.074;4.754;2023-04-26T08:45:43;6.35;;;2.00;;
3561;SDS011;1795;52.074;4.754;2023-04-26T08:48:13;3.70;;;2.13;;
3561;SDS011;1795;52.074;4.754;2023-04-26T08:50:43;5.60;;;2.15;;
3561;SDS011;1795;52.074;4.754;2023-04-26T08:53:12;3.67;;;1.92;;
3561;SDS011;1795;52.074;4.754;2023-04-26T08:55:45;4.25;;;1.70;;
3561;SDS011;1795;52.074;4.754;2023-04-26T08:58:14;2.70;;;1.40;;
3561;SDS011;1795;52.074;4.754;2023-04-26T09:00:43;2.28;;;1.70;;
3561;SDS011;1795;52.074;4.754;2023-04-26T09:03:13;2.53;;;1.80;;
3561;SDS011;1795;52.074;4.754;2023-04-26T09:05:42;4.82;;;1.60;;
3561;SDS011;1795;52.074;4.754;2023-04-26T09:08:11;5.07;;;2.38;;
3561;SDS011;1795;52.074;4.754;2023-04-26T09:10:42;3.72;;;1.90;;
3561;SDS011;1795;52.074;4.754;2023-04-26T09:13:10;4.80;;;1.90;;
3561;SDS011;1795;52.074;4.754;2023-04-26T09:15:39;3.50;;;2.03;;
3561;SDS011;1795;52.074;4.754;2023-04-26T09:18:18;4.80;;;1.90;;
3561;SDS011;1795;52.074;4.754;2023-04-26T09:21:00;5.43;;;1.90;;
3561;SDS011;1795;52.074;4.754;2023-04-26T09:23:29;3.30;;;1.60;;
3561;SDS011;1795;52.074;4.754;2023-04-26T09:26:17;5.68;;;1.90;;
3561;SDS011;1795;52.074;4.754;2023-04-26T09:28:46;2.70;;;1.60;;
3561;SDS011;1795;52.074;4.754;2023-04-26T09:31:22;1.92;;;1.60;;
3561;SDS011;1795;52.074;4.754;2023-04-26T09:34:04;4.43;;;1.90;;
3561;SDS011;1795;52.074;4.754;2023-04-26T09:36:44;3.85;;;1.52;;
3561;SDS011;1795;52.074;4.754;2023-04-26T09:39:13;5.68;;;2.20;;
3561;SDS011;1795;52.074;4.754;2023-04-26T09:41:42;4.55;;;1.50;;
3561;SDS011;1795;52.074;4.754;2023-04-26T09:44:20;2.00;;;1.80;;
3561;SDS011;1795;52.074;4.754;2023-04-26T09:46:59;2.67;;;1.40;;
3561;SDS011;1795;52.074;4.754;2023-04-26T09:49:31;3.03;;;1.80;;
3561;SDS011;1795;52.074;4.754;2023-04-26T09:52:03;2.40;;;1.67;;
3561;SDS011;1795;52.074;4.754;2023-04-26T09:54:39;3.08;;;1.50;;
3561;SDS011;1795;52.074;4.754;2023-04-26T09:57:08;4.00;;;1.35;;
3561;SDS011;1795;52.074;4.754;2023-04-26T09:59:40;1.90;;;1.58;;
3561;SDS011;1795;52.074;4.754;2023-04-26T10:02:12;2.72;;;1.70;;
3561;SDS011;1795;52.074;4.754;2023-04-26T10:04:47;3.75;;;1.40;;
3561;SDS011;1795;52.074;4.754;2023-04-26T10:07:18;3.40;;;1.50;;
3561;SDS011;1795;52.074;4.754;2023-04-26T10:09:47;1.80;;;1.70;;
3561;SDS011;1795;52.074;4.754;2023-04-26T10:12:16;3.85;;;1.42;;
3561;SDS011;1795;52.074;4.754;2023-04-26T10:14:45;2.58;;;1.60;;
3561;SDS011;1795;52.074;4.754;2023-04-26T10:17:13;2.88;;;1.70;;
3561;SDS011;1795;52.074;4.754;2023-04-26T10:19:41;2.45;;;1.50;;
3561;SDS011;1795;52.074;4.754;2023-04-26T10:22:14;2.33;;;1.88;;
3561;SDS011;1795;52.074;4.754;2023-04-26T10:24:46;3.30;;;1.70;;
3561;SDS011;1795;52.074;4.754;2023-04-26T10:27:15;3.20;;;1.58;;
3561;SDS011;1795;52.074;4.754;2023-04-26T10:30:05;3.33;;;1.70;;
3561;SDS011;1795;52.074;4.754;2023-04-26T10:35:58;5.35;;;1.60;;
3561;SDS011;1795;52.074;4.754;2023-04-26T10:38:29;3.17;;;1.30;;
3561;SDS011;1795;52.074;4.754;2023-04-26T10:43:58;4.17;;;1.77;;
3561;SDS011;1795;52.074;4.754;2023-04-26T10:46:51;1.80;;;1.40;;
3561;SDS011;1795;52.074;4.754;2023-04-26T10:49:19;3.90;;;1.70;;
3561;SDS011;1795;52.074;4.754;2023-04-26T10:52:07;3.78;;;1.58;;
3561;SDS011;1795;52.074;4.754;2023-04-26T10:54:45;4.97;;;1.50;;
3561;SDS011;1795;52.074;4.754;2023-04-26T10:57:23;2.60;;;1.52;;
3561;SDS011;1795;52.074;4.754;2023-04-26T11:00:19;3.63;;;1.50;;
3561;SDS011;1795;52.074;4.754;2023-04-26T11:03:01;2.97;;;1.30;;
3561;SDS011;1795;52.074;4.754;2023-04-26T11:05:32;2.10;;;1.50;;
3561;SDS011;1795;52.074;4.754;2023-04-26T11:08:04;8.88;;;1.80;;
3561;SDS011;1795;52.074;4.754;2023-04-26T11:10:38;5.82;;;1.60;;
3561;SDS011;1795;52.074;4.754;2023-04-26T11:13:07;3.63;;;1.73;;
3561;SDS011;1795;52.074;4.754;2023-04-26T11:15:35;3.85;;;1.70;;
3561;SDS011;1795;52.074;4.754;2023-04-26T11:18:03;5.50;;;1.70;;
3561;SDS011;1795;52.074;4.754;2023-04-26T11:20:32;3.63;;;1.70;;
3561;SDS011;1795;52.074;4.754;2023-04-26T11:23:00;5.90;;;1.70;;
3561;SDS011;1795;52.074;4.754;2023-04-26T11:25:28;2.30;;;1.70;;
3561;SDS011;1795;52.074;4.754;2023-04-26T11:28:01;4.15;;;1.80;;
3561;SDS011;1795;52.074;4.754;2023-04-26T11:30:29;3.65;;;1.60;;
3561;SDS011;1795;52.074;4.754;2023-04-26T11:32:58;4.28;;;2.00;;
3561;SDS011;1795;52.074;4.754;2023-04-26T11:35:26;4.07;;;1.40;;
3561;SDS011;1795;52.074;4.754;2023-04-26T11:37:56;3.70;;;1.70;;
3561;SDS011;1795;52.074;4.754;2023-04-26T11:40:27;4.00;;;1.77;;
3561;SDS011;1795;52.074;4.754;2023-04-26T11:42:58;4.60;;;1.98;;
3561;SDS011;1795;52.074;4.754;2023-04-26T11:45:29;2.40;;;1.50;;
3561;SDS011;1795;52.074;4.754;2023-04-26T11:47:58;1.33;;;1.20;;
3561;SDS011;1795;52.074;4.754;2023-04-26T11:50:28;6.28;;;1.80;;
3561;SDS011;1795;52.074;4.754;2023-04-26T11:52:58;3.58;;;1.58;;
3561;SDS011;1795;52.074;4.754;2023-04-26T11:55:27;2.97;;;1.50;;
3561;SDS011;1795;52.074;4.754;2023-04-26T11:57:57;3.05;;;1.65;;
3561;SDS011;1795;52.074;4.754;2023-04-26T12:00:25;3.50;;;1.70;;
3561;SDS011;1795;52.074;4.754;2023-04-26T12:02:55;3.75;;;1.83;;
3561;SDS011;1795;52.074;4.754;2023-04-26T12:05:24;2.30;;;1.67;;
3561;SDS011;1795;52.074;4.754;2023-04-26T12:07:54;3.40;;;1.95;;
3561;SDS011;1795;52.074;4.754;2023-04-26T12:10:24;1.70;;;1.60;;
3561;SDS011;1795;52.074;4.754;2023-04-26T12:12:53;3.70;;;1.80;;
3561;SDS011;1795;52.074;4.754;2023-04-26T12:15:22;3.15;;;1.77;;
3561;SDS011;1795;52.074;4.754;2023-04-26T12:17:52;4.45;;;1.70;;
3561;SDS011;1795;52.074;4.754;2023-04-26T12:20:26;3.15;;;1.85;;
3561;SDS011;1795;52.074;4.754;2023-04-26T12:22:56;2.47;;;1.90;;
3561;SDS011;1795;52.074;4.754;2023-04-26T12:25:28;3.80;;;1.60;;
3561;SDS011;1795;52.074;4.754;2023-04-26T12:27:56;2.92;;;1.95;;
3561;SDS011;1795;52.074;4.754;2023-04-26T12:30:25;4.47;;;2.10;;
3561;SDS011;1795;52.074;4.754;2023-04-26T12:32:56;3.47;;;1.80;;
3561;SDS011;1795;52.074;4.754;2023-04-26T12:35:40;2.90;;;1.70;;
3561;SDS011;1795;52.074;4.754;2023-04-26T12:38:08;3.10;;;1.60;;
3561;SDS011;1795;52.074;4.754;2023-04-26T12:40:37;5.43;;;1.90;;
3561;SDS011;1795;52.074;4.754;2023-04-26T12:43:05;3.43;;;1.63;;
3561;SDS011;1795;52.074;4.754;2023-04-26T12:45:33;4.53;;;2.00;;
3561;SDS011;1795;52.074;4.754;2023-04-26T12:48:03;2.88;;;1.90;;
3561;SDS011;1795;52.074;4.754;2023-04-26T12:50:31;2.00;;;1.67;;
3561;SDS011;1795;52.074;4.754;2023-04-26T12:53:00;3.08;;;1.70;;
3561;SDS011;1795;52.074;4.754;2023-04-26T12:55:28;3.20;;;1.80;;
3561;SDS011;1795;52.074;4.754;2023-04-26T12:57:58;3.38;;;1.45;;
3561;SDS011;1795;52.074;4.754;2023-04-26T13:00:26;3.33;;;1.60;;
3561;SDS011;1795;52.074;4.754;2023-04-26T13:02:54;3.97;;;2.00;;
3561;SDS011;1795;52.074;4.754;2023-04-26T13:05:23;6.65;;;1.60;;
3561;SDS011;1795;52.074;4.754;2023-04-26T13:07:51;3.70;;;1.90;;
3561;SDS011;1795;52.074;4.754;2023-04-26T13:10:19;3.15;;;1.60;;
3561;SDS011;1795;52.074;4.754;2023-04-26T13:12:47;4.57;;;2.03;;
3561;SDS011;1795;52.074;4.754;2023-04-26T13:15:15;2.15;;;1.30;;
3561;SDS011;1795;52.074;4.754;2023-04-26T13:17:43;3.40;;;1.90;;
3561;SDS011;1795;52.074;4.754;2023-04-26T13:20:12;3.55;;;2.00;;
3561;SDS011;1795;52.074;4.754;2023-04-26T13:22:41;3.65;;;1.67;;
3561;SDS011;1795;52.074;4.754;2023-04-26T13:25:09;3.45;;;1.70;;
3561;SDS011;1795;52.074;4.754;2023-04-26T13:27:38;2.13;;;1.60;;
3561;SDS011;1795;52.074;4.754;2023-04-26T13:30:06;5.03;;;1.98;;
3561;SDS011;1795;52.074;4.754;2023-04-26T13:32:35;3.30;;;1.60;;
3561;SDS011;1795;52.074;4.754;2023-04-26T13:35:04;3.92;;;1.60;;
3561;SDS011;1795;52.074;4.754;2023-04-26T13:37:32;3.20;;;1.40;;
3561;SDS011;1795;52.074;4.754;2023-04-26T13:40:02;2.60;;;1.70;;
3561;SDS011;1795;52.074;4.754;2023-04-26T13:42:30;1.85;;;1.50;;
3561;SDS011;1795;52.074;4.754;2023-04-26T13:44:58;3.15;;;1.58;;
3561;SDS011;1795;52.074;4.754;2023-04-26T13:47:31;3.45;;;1.60;;
3561;SDS011;1795;52.074;4.754;2023-04-26T13:49:59;1.50;;;1.40;;
3561;SDS011;1795;52.074;4.754;2023-04-26T13:52:27;2.70;;;1.63;;
3561;SDS011;1795;52.074;4.754;2023-04-26T13:54:55;2.42;;;1.35;;
3561;SDS011;1795;52.074;4.754;2023-04-26T13:57:24;3.13;;;1.75;;
3561;SDS011;1795;52.074;4.754;2023-04-26T13:59:52;3.95;;;1.92;;
3561;SDS011;1795;52.074;4.754;2023-04-26T14:02:20;2.03;;;1.60;;
3561;SDS011;1795;52.074;4.754;2023-04-26T14:04:49;3.70;;;1.60;;
3561;SDS011;1795;52.074;4.754;2023-04-26T14:07:18;4.45;;;1.70;;
3561;SDS011;1795;52.074;4.754;2023-04-26T14:09:46;3.00;;;1.80;;
3561;SDS011;1795;52.074;4.754;2023-04-26T14:12:14;2.65;;;1.83;;
3561;SDS011;1795;52.074;4.754;2023-04-26T14:14:43;3.35;;;1.75;;
3561;SDS011;1795;52.074;4.754;2023-04-26T14:17:13;3.60;;;1.70;;
3561;SDS011;1795;52.074;4.754;2023-04-26T14:19:41;5.35;;;2.30;;
3561;SDS011;1795;52.074;4.754;2023-04-26T14:22:08;2.92;;;1.70;;
3561;SDS011;1795;52.074;4.754;2023-04-26T14:24:38;3.25;;;1.77;;
3561;SDS011;1795;52.074;4.754;2023-04-26T14:27:06;4.20;;;1.70;;
3561;SDS011;1795;52.074;4.754;2023-04-26T14:29:34;2.55;;;1.80;;
3561;SDS011;1795;52.074;4.754;2023-04-26T14:32:03;3.87;;;1.60;;
3561;SDS011;1795;52.074;4.754;2023-04-26T14:34:32;2.35;;;1.40;;
3561;SDS011;1795;52.074;4.754;2023-04-26T14:37:04;2.00;;;1.80;;
3561;SDS011;1795;52.074;4.754;2023-04-26T14:39:32;3.40;;;1.60;;
3561;SDS011;1795;52.074;4.754;2023-04-26T14:42:00;2.97;;;1.90;;
3561;SDS011;1795;52.074;4.754;2023-04-26T14:44:30;3.80;;;1.92;;
3561;SDS011;1795;52.074;4.754;2023-04-26T14:46:58;2.15;;;1.50;;
3561;SDS011;1795;52.074;4.754;2023-04-26T14:49:28;3.95;;;2.10;;
3561;SDS011;1795;52.074;4.754;2023-04-26T14:51:56;2.70;;;1.73;;
3561;SDS011;1795;52.074;4.754;2023-04-26T14:54:24;3.42;;;1.80;;
3561;SDS011;1795;52.074;4.754;2023-04-26T14:56:52;1.85;;;1.70;;
3561;SDS011;1795;52.074;4.754;2023-04-26T14:59:20;2.60;;;1.63;;
3561;SDS011;1795;52.074;4.754;2023-04-26T15:01:48;6.28;;;1.85;;
3561;SDS011;1795;52.074;4.754;2023-04-26T15:04:18;4.65;;;1.80;;
3561;SDS011;1795;52.074;4.754;2023-04-26T15:06:48;2.33;;;1.58;;
3561;SDS011;1795;52.074;4.754;2023-04-26T15:09:16;2.58;;;1.80;;
3561;SDS011;1795;52.074;4.754;2023-04-26T15:11:44;4.53;;;1.92;;
3561;SDS011;1795;52.074;4.754;2023-04-26T15:14:11;3.20;;;1.70;;
3561;SDS011;1795;52.074;4.754;2023-04-26T15:16:39;2.60;;;1.60;;
3561;SDS011;1795;52.074;4.754;2023-04-26T15:19:08;2.75;;;1.60;;
3561;SDS011;1795;52.074;4.754;2023-04-26T15:21:35;3.10;;;1.90;;
3561;SDS011;1795;52.074;4.754;2023-04-26T15:24:05;3.70;;;1.77;;
3561;SDS011;1795;52.074;4.754;2023-04-26T15:26:34;3.00;;;1.80;;
3561;SDS011;1795;52.074;4.754;2023-04-26T15:29:02;3.70;;;1.70;;
3561;SDS011;1795;52.074;4.754;2023-04-26T15:31:29;3.20;;;1.88;;
3561;SDS011;1795;52.074;4.754;2023-04-26T15:33:58;3.35;;;1.60;;
3561;SDS011;1795;52.074;4.754;2023-04-26T15:36:26;3.60;;;1.88;;